createdAt,value
2019-02-04T00:03:29.399Z,343.70
2019-02-04T00:08:37.068Z,351.27
2019-02-04T00:13:45.674Z,234.70
2019-02-04T00:18:53.078Z,247.60
2019-02-04T00:24:13.383Z,243.73
2019-02-04T00:29:28.782Z,174.60
2019-02-04T00:34:49.282Z,89.43
2019-02-04T00:40:08.904Z,64.03
2019-02-04T00:45:25.779Z,57.93
2019-02-04T00:50:35.763Z,66.17
2019-02-04T00:55:56.738Z,58.68
2019-02-04T01:01:16.691Z,43.23
2019-02-04T01:06:35.442Z,36.08
2019-02-04T01:11:58.062Z,31.80
2019-02-04T01:17:12.334Z,27.87
2019-02-04T01:22:32.406Z,24.57
2019-02-04T01:27:46.787Z,23.90
2019-02-04T01:32:53.959Z,22.20
2019-02-04T01:38:01.394Z,26.40
2019-02-04T01:43:08.764Z,30.80
2019-02-04T01:53:23.679Z,25.67
2019-02-04T02:08:44.976Z,20.83
2019-02-04T02:13:52.383Z,18.33
2019-02-04T02:19:02.636Z,21.10
2019-02-04T02:24:12.388Z,154.35
2019-02-04T02:29:19.811Z,217.67
2019-02-04T02:34:27.010Z,387.37
2019-02-04T02:39:34.392Z,192.57
2019-02-04T02:44:41.720Z,114.25
2019-02-04T02:49:49.938Z,44.50
2019-02-04T02:54:57.391Z,38.27
2019-02-04T03:00:24.587Z,27.50
2019-02-04T03:05:32.153Z,24.73
2019-02-04T03:10:39.397Z,21.30
2019-02-04T03:20:53.926Z,15.50
2019-02-04T03:26:01.574Z,14.73
2019-02-04T03:31:08.951Z,15.77
2019-02-04T03:36:17.385Z,101.30
2019-02-04T03:41:24.388Z,155.72
2019-02-04T03:46:32.074Z,43.93
2019-02-04T03:51:39.401Z,30.00
2019-02-04T03:56:46.982Z,22.50
2019-02-04T04:01:54.382Z,17.00
2019-02-04T04:07:01.687Z,15.68
2019-02-04T04:12:08.988Z,16.90
2019-02-04T04:27:31.391Z,13.70
2019-02-04T04:32:38.913Z,12.13
2019-02-04T04:37:46.383Z,32.17
2019-02-04T04:42:54.151Z,20.35
2019-02-04T04:48:02.589Z,14.17
2019-02-04T05:13:37.642Z,9.37
2019-02-04T05:18:44.939Z,12.00
2019-02-04T05:28:59.060Z,10.23
2019-02-04T05:34:06.023Z,11.65
2019-02-04T05:39:13.392Z,11.57
2019-02-04T05:44:20.395Z,12.20
2019-02-04T05:49:27.735Z,9.63
2019-02-04T05:54:35.639Z,9.60
2019-02-04T05:59:42.942Z,9.45
2019-02-04T06:04:51.063Z,8.57
2019-02-04T06:09:59.386Z,8.27
2019-02-04T06:15:07.923Z,7.83
2019-02-04T06:20:16.215Z,7.70
2019-02-04T06:30:30.203Z,10.83
2019-02-04T06:40:44.944Z,7.37
2019-02-04T06:45:52.153Z,7.40
2019-02-04T06:50:59.680Z,7.77
2019-02-04T06:56:06.948Z,9.03
2019-02-04T07:01:14.390Z,7.15
2019-02-04T07:06:21.767Z,9.57
2019-02-04T07:11:29.374Z,9.33
2019-02-04T07:16:36.378Z,7.72
2019-02-04T07:21:43.974Z,7.80
2019-02-04T07:26:51.371Z,6.92
2019-02-04T07:31:59.603Z,7.73
2019-02-04T07:37:07.015Z,6.60
2019-02-04T07:42:14.382Z,6.70
2019-02-04T07:47:21.657Z,7.17
2019-02-04T07:52:28.793Z,6.60
2019-02-04T07:57:36.016Z,6.93
2019-02-04T08:02:43.615Z,6.30
2019-02-04T08:07:51.023Z,6.70
2019-02-04T08:13:01.432Z,28.17
2019-02-04T08:18:07.370Z,68.43
2019-02-04T08:23:14.671Z,23.67
2019-02-04T08:28:22.934Z,21.55
2019-02-04T08:33:30.366Z,27.87
2019-02-04T08:38:37.909Z,33.83
2019-02-04T08:43:45.723Z,102.80
2019-02-04T08:48:52.918Z,56.67
2019-02-04T08:54:00.129Z,33.87
2019-02-04T08:59:07.631Z,22.57
2019-02-04T09:04:43.695Z,17.48
2019-02-04T09:09:52.035Z,19.43
2019-02-04T09:14:59.375Z,22.57
2019-02-04T09:20:10.299Z,17.27
2019-02-04T09:30:23.586Z,13.30
2019-02-04T09:35:31.603Z,12.15
2019-02-04T09:40:39.927Z,12.27
2019-02-04T09:45:47.147Z,10.08
2019-02-04T09:50:54.388Z,10.03
2019-02-04T09:56:02.116Z,9.33
2019-02-04T10:01:09.562Z,9.87
2019-02-04T10:06:16.850Z,9.03
2019-02-04T10:11:24.395Z,7.35
2019-02-04T10:16:31.663Z,8.78
2019-02-04T15:12:39.236Z,8.93
2019-02-04T15:17:47.031Z,1005.73
2019-02-04T15:22:54.727Z,907.43
2019-02-04T15:28:04.409Z,231.20
2019-02-04T15:38:19.482Z,228.70
2019-02-04T15:43:27.069Z,156.70
2019-02-04T15:48:35.016Z,131.78
2019-02-04T15:53:42.082Z,117.28
2019-02-04T15:58:49.792Z,40.70
2019-02-04T16:03:57.047Z,44.10
2019-02-04T16:09:06.012Z,27.07
2019-02-04T16:14:13.383Z,55.50
2019-02-04T16:19:20.739Z,44.43
2019-02-04T16:29:35.030Z,14.07
2019-02-04T16:34:42.814Z,561.25
2019-02-04T16:39:51.508Z,479.00
2019-02-04T16:44:58.695Z,346.07
2019-02-04T16:50:06.021Z,519.87
2019-02-04T17:00:22.153Z,236.00
2019-02-04T17:05:29.533Z,607.37
2019-02-04T17:15:44.380Z,299.37
2019-02-04T17:20:51.958Z,169.07
2019-02-04T17:31:07.375Z,36.60
2019-02-04T17:36:14.980Z,19.37
2019-02-04T17:41:22.688Z,11.85
2019-02-04T17:46:29.989Z,10.88
2019-02-04T17:51:37.512Z,11.67
2019-02-04T17:56:44.944Z,10.17
2019-02-04T18:01:52.377Z,10.43
2019-02-04T18:06:59.915Z,10.17
2019-02-04T18:12:07.022Z,9.58
2019-02-04T18:17:14.414Z,9.45
2019-02-04T18:22:21.937Z,9.83
2019-02-04T18:27:29.372Z,9.20
2019-02-04T18:32:36.675Z,9.33
2019-02-04T18:37:43.930Z,10.00
2019-02-04T18:42:51.374Z,10.20
2019-02-04T18:47:58.746Z,10.03
2019-02-04T18:53:06.555Z,10.20
2019-02-04T18:58:13.869Z,11.67
2019-02-04T19:03:21.789Z,11.63
2019-02-04T19:08:28.987Z,12.43
2019-02-04T19:13:36.594Z,12.20
2019-02-04T19:18:43.958Z,12.27
2019-02-04T19:28:58.592Z,27.57
2019-02-04T19:34:05.882Z,90.10
2019-02-04T19:39:13.103Z,97.97
2019-02-04T19:44:21.372Z,118.45
2019-02-04T19:49:28.926Z,166.97
2019-02-04T19:54:36.366Z,187.37
2019-02-04T19:59:44.301Z,301.42
2019-02-04T20:04:51.661Z,443.63
2019-02-04T20:09:59.961Z,836.80
2019-02-04T20:15:08.719Z,895.90
2019-02-04T20:20:16.885Z,861.30
2019-02-04T20:25:24.866Z,1106.33
2019-02-04T20:30:44.594Z,917.27
2019-02-04T20:35:42.652Z,931.80
2019-02-04T20:40:50.616Z,858.10
2019-02-04T20:45:58.377Z,821.33
2019-02-04T20:51:05.855Z,607.20
2019-02-04T20:56:13.886Z,498.50
2019-02-04T21:01:21.627Z,307.45
2019-02-04T21:06:28.894Z,183.97
2019-02-04T21:11:47.929Z,84.50
2019-02-04T21:16:56.367Z,41.50
2019-02-04T21:22:03.731Z,32.07
2019-02-04T21:27:11.075Z,27.13
2019-02-04T21:37:25.619Z,22.32
2019-02-04T21:52:49.371Z,19.83
2019-02-04T21:57:56.874Z,18.42
2019-02-04T22:03:04.066Z,19.00
2019-02-04T22:08:11.381Z,18.87
2019-02-04T22:13:19.891Z,16.17
2019-02-04T22:18:27.714Z,16.60
2019-02-04T22:23:35.017Z,16.77
2019-02-04T22:28:43.062Z,17.17
2019-02-04T22:33:50.026Z,15.85
2019-02-04T22:38:57.974Z,28.10
2019-02-04T22:44:05.758Z,262.60
2019-02-04T22:49:12.938Z,247.00
2019-02-04T22:54:20.380Z,129.17
2019-02-04T22:59:27.879Z,111.50
2019-02-04T23:04:35.874Z,110.68
2019-02-04T23:09:43.382Z,187.82
2019-02-04T23:14:50.702Z,103.53
2019-02-04T23:19:57.903Z,121.03
2019-02-04T23:25:05.399Z,100.37
2019-02-04T23:30:13.381Z,66.60
2019-02-04T23:35:27.813Z,52.53
2019-02-04T23:40:36.287Z,65.65
2019-02-04T23:45:44.259Z,135.32
2019-02-04T23:50:51.918Z,284.60
2019-02-04T23:55:59.458Z,391.73
